sensor_id;sensor_type;location;lat;lon;timestamp;pressure;altitude;pressure_sealevel;temperature;humidity
32131;BME280;18639;50.716;7.086;2023-10-09T00:01:52;100908.78;;;15.13;100.00
32131;BME280;18639;50.716;7.086;2023-10-09T00:04:18;100897.63;;;15.00;100.00
32131;BME280;18639;50.716;7.086;2023-10-09T00:06:45;100910.94;;;15.19;100.00
32131;BME280;18639;50.716;7.086;2023-10-09T00:09:11;100826.31;;;14.67;100.00
32131;BME280;18639;50.716;7.086;2023-10-09T00:11:55;100893.44;;;15.21;100.00
32131;BME280;18639;50.716;7.086;2023-10-09T00:14:26;100907.16;;;15.23;100.00
32131;BME280;18639;50.716;7.086;2023-10-09T00:16:55;100871.63;;;15.00;100.00
32131;BME280;18639;50.716;7.086;2023-10-09T00:19:35;100906.06;;;15.14;100.00
32131;BME280;18639;50.716;7.086;2023-10-09T00:22:02;100852.03;;;14.83;100.00
32131;BME280;18639;50.716;7.086;2023-10-09T00:24:34;100874.06;;;15.01;100.00
32131;BME280;18639;50.716;7.086;2023-10-09T00:27:00;100849.09;;;14.88;100.00
32131;BME280;18639;50.716;7.086;2023-10-09T00:29:39;100891.41;;;15.13;100.00
32131;BME280;18639;50.716;7.086;2023-10-09T00:32:09;100834.28;;;14.77;100.00
32131;BME280;18639;50.716;7.086;2023-10-09T00:34:49;100897.44;;;15.14;100.00
32131;BME280;18639;50.716;7.086;2023-10-09T00:37:16;100898.50;;;15.11;100.00
32131;BME280;18639;50.716;7.086;2023-10-09T00:39:45;100896.97;;;15.20;100.00
32131;BME280;18639;50.716;7.086;2023-10-09T00:42:13;100864.75;;;14.99;100.00
32131;BME280;18639;50.716;7.086;2023-10-09T00:44:40;100901.69;;;15.15;100.00
32131;BME280;18639;50.716;7.086;2023-10-09T00:47:08;100890.56;;;15.13;100.00
32131;BME280;18639;50.716;7.086;2023-10-09T00:50:00;100874.34;;;15.09;100.00
32131;BME280;18639;50.716;7.086;2023-10-09T00:52:41;100891.41;;;15.13;100.00
32131;BME280;18639;50.716;7.086;2023-10-09T00:55:11;100894.00;;;15.13;100.00
32131;BME280;18639;50.716;7.086;2023-10-09T00:57:45;100876.09;;;14.98;100.00
32131;BME280;18639;50.716;7.086;2023-10-09T01:00:28;100883.44;;;15.04;100.00
32131;BME280;18639;50.716;7.086;2023-10-09T01:03:08;100867.44;;;14.97;100.00
32131;BME280;18639;50.716;7.086;2023-10-09T01:05:43;100861.75;;;14.92;100.00
32131;BME280;18639;50.716;7.086;2023-10-09T01:08:20;100865.28;;;14.91;100.00
32131;BME280;18639;50.716;7.086;2023-10-09T01:11:04;100861.38;;;14.86;100.00
32131;BME280;18639;50.716;7.086;2023-10-09T01:13:44;100871.34;;;14.92;100.00
32131;BME280;18639;50.716;7.086;2023-10-09T01:16:16;100869.91;;;14.88;100.00
32131;BME280;18639;50.716;7.086;2023-10-09T01:18:53;100849.78;;;14.79;100.00
32131;BME280;18639;50.716;7.086;2023-10-09T01:21:22;100853.66;;;14.73;100.00
32131;BME280;18639;50.716;7.086;2023-10-09T01:23:49;100863.72;;;14.78;100.00
32131;BME280;18639;50.716;7.086;2023-10-09T01:26:27;100860.16;;;14.67;100.00
32131;BME280;18639;50.716;7.086;2023-10-09T01:28:57;100829.56;;;14.47;100.00
32131;BME280;18639;50.716;7.086;2023-10-09T01:31:25;100837.47;;;14.46;100.00
32131;BME280;18639;50.716;7.086;2023-10-09T01:34:02;100849.31;;;14.50;100.00
32131;BME280;18639;50.716;7.086;2023-10-09T01:36:33;100853.91;;;14.46;100.00
32131;BME280;18639;50.716;7.086;2023-10-09T01:38:59;100829.69;;;14.33;100.00
32131;BME280;18639;50.716;7.086;2023-10-09T01:41:25;100836.50;;;14.23;100.00
32131;BME280;18639;50.716;7.086;2023-10-09T01:43:50;100839.81;;;14.25;100.00
32131;BME280;18639;50.716;7.086;2023-10-09T01:46:18;100863.91;;;14.40;100.00
32131;BME280;18639;50.716;7.086;2023-10-09T01:48:45;100848.97;;;14.30;100.00
32131;BME280;18639;50.716;7.086;2023-10-09T01:51:15;100855.47;;;14.36;100.00
32131;BME280;18639;50.716;7.086;2023-10-09T01:53:46;100839.19;;;14.21;100.00
32131;BME280;18639;50.716;7.086;2023-10-09T01:56:21;100838.75;;;14.27;100.00
32131;BME280;18639;50.716;7.086;2023-10-09T01:58:47;100835.22;;;14.28;100.00
32131;BME280;18639;50.716;7.086;2023-10-09T02:01:13;100780.91;;;13.89;100.00
32131;BME280;18639;50.716;7.086;2023-10-09T02:03:40;100833.94;;;14.34;100.00
32131;BME280;18639;50.716;7.086;2023-10-09T02:06:08;100792.09;;;14.02;100.00
32131;BME280;18639;50.716;7.086;2023-10-09T02:09:02;100817.13;;;14.27;100.00
32131;BME280;18639;50.716;7.086;2023-10-09T02:11:31;100805.53;;;14.20;100.00
32131;BME280;18639;50.716;7.086;2023-10-09T02:14:07;100821.06;;;14.32;100.00
32131;BME280;18639;50.716;7.086;2023-10-09T02:16:45;100819.53;;;14.30;100.00
32131;BME280;18639;50.716;7.086;2023-10-09T02:19:27;100824.72;;;14.30;100.00
32131;BME280;18639;50.716;7.086;2023-10-09T02:22:04;100791.22;;;14.14;100.00
32131;BME280;18639;50.716;7.086;2023-10-09T02:24:40;100820.56;;;14.27;100.00
32131;BME280;18639;50.716;7.086;2023-10-09T02:27:18;100812.56;;;14.30;100.00
32131;BME280;18639;50.716;7.086;2023-10-09T02:30:03;100830.22;;;14.38;100.00
32131;BME280;18639;50.716;7.086;2023-10-09T02:32:40;100833.31;;;14.43;100.00
32131;BME280;18639;50.716;7.086;2023-10-09T02:35:05;100834.13;;;14.44;100.00
32131;BME280;18639;50.716;7.086;2023-10-09T02:37:43;100823.16;;;14.40;100.00
32131;BME280;18639;50.716;7.086;2023-10-09T02:40:11;100830.50;;;14.46;100.00
32131;BME280;18639;50.716;7.086;2023-10-09T02:42:40;100834.53;;;14.50;100.00
32131;BME280;18639;50.716;7.086;2023-10-09T02:45:08;100826.47;;;14.42;100.00
32131;BME280;18639;50.716;7.086;2023-10-09T02:47:36;100839.97;;;14.47;100.00
32131;BME280;18639;50.716;7.086;2023-10-09T02:50:05;100831.00;;;14.51;100.00
32131;BME280;18639;50.716;7.086;2023-10-09T02:52:44;100829.56;;;14.47;100.00
32131;BME280;18639;50.716;7.086;2023-10-09T02:55:12;100818.69;;;14.42;100.00
32131;BME280;18639;50.716;7.086;2023-10-09T02:57:48;100824.38;;;14.47;100.00
32131;BME280;18639;50.716;7.086;2023-10-09T03:00:17;100813.00;;;14.48;100.00
32131;BME280;18639;50.716;7.086;2023-10-09T03:02:54;100794.13;;;14.33;100.00
32131;BME280;18639;50.716;7.086;2023-10-09T03:05:19;100825.78;;;14.51;100.00
32131;BME280;18639;50.716;7.086;2023-10-09T03:07:46;100826.00;;;14.48;100.00
32131;BME280;18639;50.716;7.086;2023-10-09T03:10:11;100804.22;;;14.38;100.00
32131;BME280;18639;50.716;7.086;2023-10-09T03:12:36;100825.31;;;14.46;100.00
32131;BME280;18639;50.716;7.086;2023-10-09T03:15:05;100823.91;;;14.53;100.00
32131;BME280;18639;50.716;7.086;2023-10-09T03:17:33;100837.88;;;14.52;100.00
32131;BME280;18639;50.716;7.086;2023-10-09T03:20:02;100831.00;;;14.51;100.00
32131;BME280;18639;50.716;7.086;2023-10-09T03:22:27;100804.75;;;14.30;100.00
32131;BME280;18639;50.716;7.086;2023-10-09T03:24:54;100837.69;;;14.43;100.00
32131;BME280;18639;50.716;7.086;2023-10-09T03:27:20;100766.69;;;14.06;100.00
32131;BME280;18639;50.716;7.086;2023-10-09T03:29:45;100785.28;;;14.12;100.00
32131;BME280;18639;50.716;7.086;2023-10-09T03:32:18;100768.97;;;14.10;100.00
32131;BME280;18639;50.716;7.086;2023-10-09T03:34:44;100777.38;;;14.14;100.00
32131;BME280;18639;50.716;7.086;2023-10-09T03:37:10;100817.84;;;14.42;100.00
32131;BME280;18639;50.716;7.086;2023-10-09T03:39:47;100803.19;;;14.41;100.00
32131;BME280;18639;50.716;7.086;2023-10-09T03:42:13;100780.47;;;14.19;100.00
32131;BME280;18639;50.716;7.086;2023-10-09T03:44:45;100808.97;;;14.44;100.00
32131;BME280;18639;50.716;7.086;2023-10-09T03:47:17;100817.50;;;14.46;100.00
32131;BME280;18639;50.716;7.086;2023-10-09T03:49:47;100811.81;;;14.41;100.00
32131;BME280;18639;50.716;7.086;2023-10-09T03:52:16;100805.25;;;14.36;100.00
32131;BME280;18639;50.716;7.086;2023-10-09T03:54:43;100813.56;;;14.41;100.00
32131;BME280;18639;50.716;7.086;2023-10-09T03:57:12;100829.22;;;14.52;100.00
32131;BME280;18639;50.716;7.086;2023-10-09T03:59:39;100825.16;;;14.48;100.00
32131;BME280;18639;50.716;7.086;2023-10-09T04:02:05;100799.44;;;14.32;100.00
32131;BME280;18639;50.716;7.086;2023-10-09T04:04:30;100829.94;;;14.54;100.00
32131;BME280;18639;50.716;7.086;2023-10-09T04:06:58;100826.13;;;14.47;100.00
32131;BME280;18639;50.716;7.086;2023-10-09T04:09:23;100824.38;;;14.47;100.00
32131;BME280;18639;50.716;7.086;2023-10-09T04:11:50;100823.28;;;14.50;100.00
32131;BME280;18639;50.716;7.086;2023-10-09T04:14:34;100804.94;;;14.40;100.00
32131;BME280;18639;50.716;7.086;2023-10-09T04:17:00;100798.38;;;14.34;100.00
32131;BME280;18639;50.716;7.086;2023-10-09T04:19:30;100820.19;;;14.45;100.00
32131;BME280;18639;50.716;7.086;2023-10-09T04:22:04;100816.44;;;14.49;100.00
32131;BME280;18639;50.716;7.086;2023-10-09T04:24:33;100791.75;;;14.30;100.00
32131;BME280;18639;50.716;7.086;2023-10-09T04:27:06;100804.00;;;14.41;100.00
32131;BME280;18639;50.716;7.086;2023-10-09T04:29:33;100783.81;;;14.32;100.00
32131;BME280;18639;50.716;7.086;2023-10-09T04:32:05;100804.72;;;14.43;100.00
32131;BME280;18639;50.716;7.086;2023-10-09T04:34:34;100796.69;;;14.46;100.00
32131;BME280;18639;50.716;7.086;2023-10-09T04:37:13;100807.59;;;14.51;100.00
32131;BME280;18639;50.716;7.086;2023-10-09T04:39:39;100798.56;;;14.44;100.00
32131;BME280;18639;50.716;7.086;2023-10-09T04:42:12;100800.63;;;14.52;100.00
32131;BME280;18639;50.716;7.086;2023-10-09T04:44:49;100770.81;;;14.32;100.00
32131;BME280;18639;50.716;7.086;2023-10-09T04:47:36;100805.09;;;14.50;100.00
32131;BME280;18639;50.716;7.086;2023-10-09T04:50:06;100809.94;;;14.54;100.00
32131;BME280;18639;50.716;7.086;2023-10-09T04:52:44;100804.25;;;14.49;100.00
32131;BME280;18639;50.716;7.086;2023-10-09T04:55:09;100787.56;;;14.41;100.00
32131;BME280;18639;50.716;7.086;2023-10-09T04:57:39;100793.97;;;14.48;100.00
32131;BME280;18639;50.716;7.086;2023-10-09T05:00:11;100802.97;;;14.55;100.00
32131;BME280;18639;50.716;7.086;2023-10-09T05:02:58;100791.94;;;14.40;100.00
32131;BME280;18639;50.716;7.086;2023-10-09T05:05:28;100795.88;;;14.46;100.00
32131;BME280;18639;50.716;7.086;2023-10-09T05:08:12;100796.00;;;14.55;100.00
32131;BME280;18639;50.716;7.086;2023-10-09T05:10:49;100778.00;;;14.41;100.00
32131;BME280;18639;50.716;7.086;2023-10-09T05:13:30;100793.16;;;14.47;100.00
32131;BME280;18639;50.716;7.086;2023-10-09T05:16:22;100791.25;;;14.49;100.00
32131;BME280;18639;50.716;7.086;2023-10-09T05:18:51;100768.44;;;14.42;100.00
32131;BME280;18639;50.716;7.086;2023-10-09T05:21:39;100790.09;;;14.53;100.00
32131;BME280;18639;50.716;7.086;2023-10-09T05:24:08;100792.19;;;14.48;100.00
32131;BME280;18639;50.716;7.086;2023-10-09T05:26:47;100804.06;;;14.52;100.00
32131;BME280;18639;50.716;7.086;2023-10-09T05:29:22;100809.75;;;14.57;100.00
32131;BME280;18639;50.716;7.086;2023-10-09T05:32:08;100803.72;;;14.57;100.00
32131;BME280;18639;50.716;7.086;2023-10-09T05:34:40;100810.44;;;14.59;100.00
32131;BME280;18639;50.716;7.086;2023-10-09T05:37:24;100802.53;;;14.61;100.00
32131;BME280;18639;50.716;7.086;2023-10-09T05:39:54;100774.69;;;14.39;100.00
32131;BME280;18639;50.716;7.086;2023-10-09T05:42:30;100807.63;;;14.62;100.00
32131;BME280;18639;50.716;7.086;2023-10-09T05:45:05;100809.41;;;14.62;100.00
32131;BME280;18639;50.716;7.086;2023-10-09T05:47:52;100800.75;;;14.61;100.00
32131;BME280;18639;50.716;7.086;2023-10-09T05:50:52;100785.16;;;14.61;100.00
32131;BME280;18639;50.716;7.086;2023-10-09T05:53:36;100780.69;;;14.63;100.00
32131;BME280;18639;50.716;7.086;2023-10-09T05:56:11;100790.59;;;14.69;100.00
32131;BME280;18639;50.716;7.086;2023-10-09T05:58:55;100790.84;;;14.66;100.00
32131;BME280;18639;50.716;7.086;2023-10-09T06:01:39;100797.25;;;14.73;100.00
32131;BME280;18639;50.716;7.086;2023-10-09T06:04:23;100796.78;;;14.68;100.00
32131;BME280;18639;50.716;7.086;2023-10-09T06:07:08;100804.81;;;14.77;100.00
32131;BME280;18639;50.716;7.086;2023-10-09T06:09:38;100802.13;;;14.78;100.00
32131;BME280;18639;50.716;7.086;2023-10-09T06:12:18;100794.53;;;14.75;100.00
32131;BME280;18639;50.716;7.086;2023-10-09T06:15:00;100784.00;;;14.77;100.00
32131;BME280;18639;50.716;7.086;2023-10-09T06:17:45;100794.78;;;14.83;100.00
32131;BME280;18639;50.716;7.086;2023-10-09T06:20:17;100776.66;;;14.70;100.00
32131;BME280;18639;50.716;7.086;2023-10-09T06:23:11;100779.06;;;14.73;100.00
32131;BME280;18639;50.716;7.086;2023-10-09T06:26:03;100821.06;;;14.91;100.00
32131;BME280;18639;50.716;7.086;2023-10-09T06:28:48;100785.78;;;14.76;100.00
32131;BME280;18639;50.716;7.086;2023-10-09T06:31:33;100814.91;;;14.92;100.00
32131;BME280;18639;50.716;7.086;2023-10-09T06:34:18;100789.25;;;14.88;100.00
32131;BME280;18639;50.716;7.086;2023-10-09T06:36:46;100795.88;;;15.03;100.00
32131;BME280;18639;50.716;7.086;2023-10-09T06:39:18;100793.38;;;15.01;100.00
32131;BME280;18639;50.716;7.086;2023-10-09T06:42:02;100812.25;;;15.16;100.00
32131;BME280;18639;50.716;7.086;2023-10-09T06:44:59;100819.81;;;15.19;100.00
32131;BME280;18639;50.716;7.086;2023-10-09T06:47:24;100806.44;;;15.12;100.00
32131;BME280;18639;50.716;7.086;2023-10-09T06:49:49;100827.75;;;15.29;100.00
32131;BME280;18639;50.716;7.086;2023-10-09T06:52:34;100816.50;;;15.28;100.00
32131;BME280;18639;50.716;7.086;2023-10-09T06:55:18;100822.06;;;15.35;100.00
32131;BME280;18639;50.716;7.086;2023-10-09T06:57:56;100831.19;;;15.40;100.00
32131;BME280;18639;50.716;7.086;2023-10-09T07:00:27;100822.44;;;15.41;100.00
32131;BME280;18639;50.716;7.086;2023-10-09T07:03:11;100808.00;;;15.37;100.00
32131;BME280;18639;50.716;7.086;2023-10-09T07:05:37;100805.03;;;15.42;100.00
32131;BME280;18639;50.716;7.086;2023-10-09T07:08:23;100825.06;;;15.52;100.00
32131;BME280;18639;50.716;7.086;2023-10-09T07:10:57;100812.78;;;15.54;100.00
32131;BME280;18639;50.716;7.086;2023-10-09T07:13:42;100819.13;;;15.62;100.00
32131;BME280;18639;50.716;7.086;2023-10-09T07:16:12;100841.66;;;15.74;100.00
32131;BME280;18639;50.716;7.086;2023-10-09T07:18:56;100854.56;;;15.86;100.00
32131;BME280;18639;50.716;7.086;2023-10-09T07:21:35;100866.41;;;15.90;100.00
32131;BME280;18639;50.716;7.086;2023-10-09T07:24:00;100855.88;;;15.81;100.00
32131;BME280;18639;50.716;7.086;2023-10-09T07:26:39;100896.13;;;15.99;100.00
32131;BME280;18639;50.716;7.086;2023-10-09T07:29:12;100875.41;;;15.86;100.00
32131;BME280;18639;50.716;7.086;2023-10-09T07:31:44;100856.66;;;15.81;100.00
32131;BME280;18639;50.716;7.086;2023-10-09T07:34:11;100888.41;;;16.09;100.00
32131;BME280;18639;50.716;7.086;2023-10-09T07:36:55;100894.91;;;16.14;100.00
32131;BME280;18639;50.716;7.086;2023-10-09T07:39:30;100882.84;;;16.13;100.00
32131;BME280;18639;50.716;7.086;2023-10-09T07:42:01;100890.28;;;16.18;100.00
32131;BME280;18639;50.716;7.086;2023-10-09T07:44:40;100871.22;;;16.17;100.00
32131;BME280;18639;50.716;7.086;2023-10-09T07:47:07;100890.47;;;16.37;100.00
32131;BME280;18639;50.716;7.086;2023-10-09T07:49:42;100882.06;;;16.45;100.00
32131;BME280;18639;50.716;7.086;2023-10-09T07:52:14;100867.47;;;16.42;100.00
32131;BME280;18639;50.716;7.086;2023-10-09T07:54:39;100881.31;;;16.54;100.00
32131;BME280;18639;50.716;7.086;2023-10-09T07:57:15;100848.25;;;16.43;100.00
32131;BME280;18639;50.716;7.086;2023-10-09T07:59:46;100854.75;;;16.49;100.00
32131;BME280;18639;50.716;7.086;2023-10-09T08:02:26;100859.13;;;16.59;100.00
32131;BME280;18639;50.716;7.086;2023-10-09T08:05:01;100848.59;;;16.61;100.00
32131;BME280;18639;50.716;7.086;2023-10-09T08:07:45;100874.25;;;16.76;100.00
32131;BME280;18639;50.716;7.086;2023-10-09T08:10:20;100864.75;;;16.75;100.00
32131;BME280;18639;50.716;7.086;2023-10-09T08:12:46;100855.09;;;16.66;100.00
32131;BME280;18639;50.716;7.086;2023-10-09T08:15:16;100854.88;;;16.79;100.00
32131;BME280;18639;50.716;7.086;2023-10-09T08:17:51;100877.25;;;16.93;100.00
32131;BME280;18639;50.716;7.086;2023-10-09T08:20:28;100872.03;;;16.93;100.00
32131;BME280;18639;50.716;7.086;2023-10-09T08:23:01;100869.28;;;16.94;100.00
32131;BME280;18639;50.716;7.086;2023-10-09T08:25:30;100874.44;;;17.05;100.00
32131;BME280;18639;50.716;7.086;2023-10-09T08:27:59;100899.72;;;17.25;100.00
32131;BME280;18639;50.716;7.086;2023-10-09T08:30:48;100871.38;;;17.21;100.00
32131;BME280;18639;50.716;7.086;2023-10-09T08:33:29;100875.69;;;17.32;100.00
32131;BME280;18639;50.716;7.086;2023-10-09T08:36:06;100893.69;;;17.46;100.00
32131;BME280;18639;50.716;7.086;2023-10-09T08:38:33;100901.00;;;17.52;100.00
32131;BME280;18639;50.716;7.086;2023-10-09T08:41:12;100906.44;;;17.60;100.00
32131;BME280;18639;50.716;7.086;2023-10-09T08:43:52;100901.75;;;17.63;100.00
32131;BME280;18639;50.716;7.086;2023-10-09T08:46:24;100893.59;;;17.57;100.00
32131;BME280;18639;50.716;7.086;2023-10-09T08:48:52;100897.63;;;17.61;100.00
32131;BME280;18639;50.716;7.086;2023-10-09T08:51:19;100883.91;;;17.48;100.00
32131;BME280;18639;50.716;7.086;2023-10-09T08:53:46;100911.84;;;17.68;100.00
32131;BME280;18639;50.716;7.086;2023-10-09T08:56:13;100903.72;;;17.71;100.00
32131;BME280;18639;50.716;7.086;2023-10-09T08:58:41;100899.22;;;17.73;100.00
32131;BME280;18639;50.716;7.086;2023-10-09T09:01:06;100875.25;;;17.68;100.00
32131;BME280;18639;50.716;7.086;2023-10-09T09:03:40;100897.59;;;17.82;100.00
32131;BME280;18639;50.716;7.086;2023-10-09T09:06:06;100871.97;;;17.76;100.00
32131;BME280;18639;50.716;7.086;2023-10-09T09:08:33;100869.13;;;17.88;100.00
32131;BME280;18639;50.716;7.086;2023-10-09T09:11:02;100865.41;;;17.91;100.00
32131;BME280;18639;50.716;7.086;2023-10-09T09:13:38;100898.31;;;17.93;100.00
32131;BME280;18639;50.716;7.086;2023-10-09T09:16:22;100900.13;;;18.02;100.00
32131;BME280;18639;50.716;7.086;2023-10-09T09:18:56;100910.06;;;18.08;100.00
32131;BME280;18639;50.716;7.086;2023-10-09T09:21:31;100902.91;;;18.11;100.00
32131;BME280;18639;50.716;7.086;2023-10-09T09:24:04;100933.28;;;18.42;100.00
32131;BME280;18639;50.716;7.086;2023-10-09T09:26:51;100923.66;;;18.42;100.00
32131;BME280;18639;50.716;7.086;2023-10-09T09:32:02;100912.41;;;18.71;100.00
32131;BME280;18639;50.716;7.086;2023-10-09T09:34:48;100868.56;;;18.82;100.00
32131;BME280;18639;50.716;7.086;2023-10-09T09:37:22;100828.19;;;18.95;100.00
32131;BME280;18639;50.716;7.086;2023-10-09T09:39:55;100792.44;;;19.03;100.00
32131;BME280;18639;50.716;7.086;2023-10-09T09:42:22;100810.56;;;19.24;100.00
32131;BME280;18639;50.716;7.086;2023-10-09T09:44:52;100818.25;;;19.45;100.00
32131;BME280;18639;50.716;7.086;2023-10-09T09:47:17;100824.06;;;19.66;100.00
32131;BME280;18639;50.716;7.086;2023-10-09T09:49:51;100825.88;;;19.93;100.00
32131;BME280;18639;50.716;7.086;2023-10-09T09:52:18;100846.97;;;20.01;100.00
32131;BME280;18639;50.716;7.086;2023-10-09T09:54:44;100838.41;;;19.99;100.00
32131;BME280;18639;50.716;7.086;2023-10-09T09:57:12;100826.28;;;19.98;100.00
32131;BME280;18639;50.716;7.086;2023-10-09T09:59:48;100823.88;;;20.04;100.00
32131;BME280;18639;50.716;7.086;2023-10-09T10:02:24;100802.69;;;20.33;100.00
32131;BME280;18639;50.716;7.086;2023-10-09T10:04:56;100786.53;;;20.64;100.00
32131;BME280;18639;50.716;7.086;2023-10-09T10:07:25;100796.19;;;21.07;100.00
32131;BME280;18639;50.716;7.086;2023-10-09T10:09:53;100777.16;;;21.38;100.00
32131;BME280;18639;50.716;7.086;2023-10-09T10:15:57;100756.78;;;21.40;100.00
32131;BME280;18639;50.716;7.086;2023-10-09T10:18:23;100781.75;;;21.87;100.00
32131;BME280;18639;50.716;7.086;2023-10-09T10:23:39;100762.91;;;22.64;92.68
32131;BME280;18639;50.716;7.086;2023-10-09T10:26:19;100781.03;;;22.83;82.42
32131;BME280;18639;50.716;7.086;2023-10-09T10:29:17;100781.69;;;22.77;77.26
32131;BME280;18639;50.716;7.086;2023-10-09T10:34:21;100745.47;;;22.47;78.07
32131;BME280;18639;50.716;7.086;2023-10-09T10:36:49;100751.41;;;22.49;77.92
32131;BME280;18639;50.716;7.086;2023-10-09T10:39:18;100752.38;;;22.48;75.84
32131;BME280;18639;50.716;7.086;2023-10-09T10:41:57;100738.56;;;22.30;79.70
32131;BME280;18639;50.716;7.086;2023-10-09T10:44:28;100757.63;;;22.40;80.81
32131;BME280;18639;50.716;7.086;2023-10-09T10:47:08;100750.75;;;22.31;73.32
32131;BME280;18639;50.716;7.086;2023-10-09T10:49:51;100757.00;;;22.21;75.89
32131;BME280;18639;50.716;7.086;2023-10-09T10:52:24;100754.34;;;22.05;79.29
32131;BME280;18639;50.716;7.086;2023-10-09T10:55:14;100762.22;;;21.97;80.38
32131;BME280;18639;50.716;7.086;2023-10-09T10:57:44;100755.94;;;21.90;78.17
32131;BME280;18639;50.716;7.086;2023-10-09T11:00:26;100718.06;;;21.67;81.13
32131;BME280;18639;50.716;7.086;2023-10-09T11:03:10;100750.81;;;21.80;80.40
32131;BME280;18639;50.716;7.086;2023-10-09T11:05:41;100759.38;;;21.82;78.74
32131;BME280;18639;50.716;7.086;2023-10-09T11:08:10;100767.47;;;21.89;78.41
32131;BME280;18639;50.716;7.086;2023-10-09T11:10:36;100753.28;;;21.82;80.27
32131;BME280;18639;50.716;7.086;2023-10-09T11:13:21;100752.13;;;21.76;78.62
32131;BME280;18639;50.716;7.086;2023-10-09T11:15:57;100740.13;;;21.74;81.82
32131;BME280;18639;50.716;7.086;2023-10-09T11:18:42;100746.38;;;21.73;81.45
32131;BME280;18639;50.716;7.086;2023-10-09T11:21:13;100766.09;;;21.85;75.02
32131;BME280;18639;50.716;7.086;2023-10-09T11:23:40;100769.75;;;21.92;79.68
32131;BME280;18639;50.716;7.086;2023-10-09T11:26:18;100773.38;;;21.91;82.13
32131;BME280;18639;50.716;7.086;2023-10-09T11:29:09;100769.41;;;21.87;81.02
32131;BME280;18639;50.716;7.086;2023-10-09T11:31:57;100757.72;;;21.81;83.70
32131;BME280;18639;50.716;7.086;2023-10-09T11:34:24;100761.69;;;21.94;81.23
32131;BME280;18639;50.716;7.086;2023-10-09T11:37:02;100765.66;;;21.90;78.04
32131;BME280;18639;50.716;7.086;2023-10-09T11:39:31;100765.94;;;21.87;78.90
32131;BME280;18639;50.716;7.086;2023-10-09T11:42:08;100768.44;;;21.88;80.10
32131;BME280;18639;50.716;7.086;2023-10-09T11:44:37;100785.41;;;22.02;79.21
32131;BME280;18639;50.716;7.086;2023-10-09T11:47:05;100768.44;;;21.88;78.14
32131;BME280;18639;50.716;7.086;2023-10-09T11:49:55;100765.47;;;21.83;80.27
32131;BME280;18639;50.716;7.086;2023-10-09T11:52:55;100772.03;;;21.87;83.36
32131;BME280;18639;50.716;7.086;2023-10-09T11:55:35;100777.66;;;21.84;80.38
32131;BME280;18639;50.716;7.086;2023-10-09T11:58:00;100763.13;;;21.72;83.35
32131;BME280;18639;50.716;7.086;2023-10-09T12:00:27;100753.09;;;21.67;82.35
32131;BME280;18639;50.716;7.086;2023-10-09T12:02:56;100786.50;;;21.83;84.51
32131;BME280;18639;50.716;7.086;2023-10-09T12:05:22;100750.22;;;21.45;83.58
32131;BME280;18639;50.716;7.086;2023-10-09T12:07:48;100787.50;;;21.74;81.39
32131;BME280;18639;50.716;7.086;2023-10-09T12:10:20;100730.16;;;21.35;82.90
32131;BME280;18639;50.716;7.086;2023-10-09T12:12:51;100777.25;;;21.63;83.58
32131;BME280;18639;50.716;7.086;2023-10-09T12:15:17;100788.63;;;21.71;82.37
32131;BME280;18639;50.716;7.086;2023-10-09T12:17:46;100759.09;;;21.43;80.11
32131;BME280;18639;50.716;7.086;2023-10-09T12:20:16;100777.41;;;21.61;79.30
32131;BME280;18639;50.716;7.086;2023-10-09T12:23:02;100783.50;;;21.62;81.48
32131;BME280;18639;50.716;7.086;2023-10-09T12:25:30;100756.16;;;21.47;81.73
32131;BME280;18639;50.716;7.086;2023-10-09T12:27:57;100764.72;;;21.57;83.78
32131;BME280;18639;50.716;7.086;2023-10-09T12:30:23;100768.00;;;21.59;83.75
32131;BME280;18639;50.716;7.086;2023-10-09T12:32:56;100765.56;;;21.57;83.46
32131;BME280;18639;50.716;7.086;2023-10-09T12:35:23;100761.72;;;21.43;86.91
32131;BME280;18639;50.716;7.086;2023-10-09T12:37:53;100734.88;;;21.32;87.05
32131;BME280;18639;50.716;7.086;2023-10-09T12:40:20;100767.31;;;21.49;87.39
32131;BME280;18639;50.716;7.086;2023-10-09T12:42:51;100766.34;;;21.41;86.11
32131;BME280;18639;50.716;7.086;2023-10-09T12:45:20;100772.28;;;21.52;88.75
32131;BME280;18639;50.716;7.086;2023-10-09T12:47:52;100781.50;;;21.56;86.81
32131;BME280;18639;50.716;7.086;2023-10-09T12:50:18;100781.50;;;21.64;78.53
32131;BME280;18639;50.716;7.086;2023-10-09T12:52:53;100773.44;;;21.57;75.84
32131;BME280;18639;50.716;7.086;2023-10-09T12:55:19;100773.31;;;21.67;77.13
32131;BME280;18639;50.716;7.086;2023-10-09T12:57:47;100729.00;;;21.38;73.35
32131;BME280;18639;50.716;7.086;2023-10-09T13:00:13;100776.28;;;21.72;74.33
32131;BME280;18639;50.716;7.086;2023-10-09T13:02:50;100786.13;;;21.70;75.34
32131;BME280;18639;50.716;7.086;2023-10-09T13:05:15;100763.28;;;21.70;75.30
32131;BME280;18639;50.716;7.086;2023-10-09T13:07:51;100766.56;;;21.64;74.36
32131;BME280;18639;50.716;7.086;2023-10-09T13:10:16;100779.25;;;21.69;77.68
32131;BME280;18639;50.716;7.086;2023-10-09T13:12:42;100723.91;;;21.36;78.22
32131;BME280;18639;50.716;7.086;2023-10-09T13:15:08;100771.66;;;21.58;81.26
32131;BME280;18639;50.716;7.086;2023-10-09T13:17:38;100778.56;;;21.67;83.31
32131;BME280;18639;50.716;7.086;2023-10-09T13:20:04;100775.56;;;21.54;77.41
32131;BME280;18639;50.716;7.086;2023-10-09T13:22:49;100766.69;;;21.47;79.54
32131;BME280;18639;50.716;7.086;2023-10-09T13:25:17;100750.19;;;21.36;78.36
32131;BME280;18639;50.716;7.086;2023-10-09T13:27:49;100769.94;;;21.49;77.93